Time;durP1;ratioP1;P1;durP2;ratioP2;P2;SDS_P1;SDS_P2;PMS_P1;PMS_P2;Temp;Humidity;BMP_temperature;BMP_pressure;BME280_temperature;BME280_humidity;BME280_pressure;Samples;Min_cycle;Max_cycle;Signal;HPM_P1;HPM_P2
2023/04/29 00:00:50;;;;;;;7.33;6.40;;;;;;;10.29;41.03;94973.06;5030239;28;20186;-70
2023/04/29 00:03:17;;;;;;;6.77;5.20;;;;;;;10.26;41.02;94968.06;5026839;28;20185;-70
2023/04/29 00:05:43;;;;;;;6.90;4.90;;;;;;;10.16;40.62;94960.28;5026012;28;20350;-70
2023/04/29 00:08:08;;;;;;;6.87;4.30;;;;;;;10.21;40.37;94963.28;5022130;28;20217;-70
2023/04/29 00:10:34;;;;;;;6.80;3.87;;;;;;;10.22;40.32;94970.19;5033852;28;20252;-70
2023/04/29 00:12:59;;;;;;;9.10;4.00;;;;;;;10.21;40.13;94967.69;5034035;28;20294;-70
2023/04/29 00:15:25;;;;;;;5.50;4.33;;;;;;;10.13;40.26;94961.41;5022739;28;20261;-70
2023/04/29 00:17:50;;;;;;;7.60;3.87;;;;;;;10.23;40.11;94976.25;5032274;28;20225;-70
2023/04/29 00:20:16;;;;;;;5.47;3.93;;;;;;;10.23;40.25;94971.00;5026560;28;20325;-70
2023/04/29 00:22:42;;;;;;;6.13;3.97;;;;;;;10.16;39.91;94970.78;5025427;28;20261;-70
2023/04/29 00:25:08;;;;;;;5.57;3.70;;;;;;;10.15;39.93;94963.88;5028148;28;20228;-70
2023/04/29 00:27:33;;;;;;;4.73;3.70;;;;;;;10.14;40.40;94973.56;5045936;28;20185;-70
2023/04/29 00:29:58;;;;;;;6.80;3.90;;;;;;;9.99;40.66;94967.16;5030675;28;20286;-70
2023/04/29 00:32:24;;;;;;;5.33;4.00;;;;;;;9.99;41.03;94985.56;5030804;28;20308;-69
2023/04/29 00:34:50;;;;;;;7.10;4.20;;;;;;;10.05;40.75;94974.47;5031581;28;20221;-69
2023/04/29 00:37:16;;;;;;;5.57;3.97;;;;;;;10.07;41.23;94980.38;5029333;28;20225;-67
2023/04/29 00:39:42;;;;;;;7.72;5.53;;;;;;;9.99;42.58;94977.66;5031628;28;20211;-67
2023/04/29 00:42:08;;;;;;;7.05;5.22;;;;;;;10.04;43.29;94977.25;5023866;28;20178;-70
2023/04/29 00:44:34;;;;;;;8.30;4.77;;;;;;;9.94;42.63;94978.16;5020515;28;20315;-71
2023/04/29 00:47:00;;;;;;;5.20;4.10;;;;;;;9.82;42.63;94981.13;5029392;28;20697;-70
2023/04/29 00:49:26;;;;;;;6.27;4.27;;;;;;;9.55;43.05;94961.78;5028840;28;20222;-70
2023/04/29 00:51:52;;;;;;;5.40;4.07;;;;;;;9.57;42.60;94969.50;5028293;28;20186;-71
2023/04/29 00:54:18;;;;;;;5.63;3.87;;;;;;;9.68;42.72;94966.69;5037101;28;20178;-71
2023/04/29 00:56:45;;;;;;;8.20;4.20;;;;;;;9.66;42.39;94968.63;5033360;28;20296;-71
2023/04/29 00:59:11;;;;;;;5.77;3.90;;;;;;;9.45;43.10;94947.88;5048064;28;20233;-71
2023/04/29 01:01:37;;;;;;;6.90;4.27;;;;;;;9.53;42.76;94950.59;5031121;28;20261;-71
2023/04/29 01:04:05;;;;;;;5.60;4.10;;;;;;;9.55;42.15;94950.47;5041903;28;20513;-70
2023/04/29 01:06:55;;;;;;;4.50;3.80;;;;;;;9.52;42.07;94946.34;5032050;28;20177;-70
2023/04/29 01:09:42;;;;;;;4.40;3.90;;;;;;;9.49;41.96;94938.75;5046984;28;20240;-70
2023/04/29 01:12:30;;;;;;;6.73;5.10;;;;;;;9.44;42.00;94941.81;5031601;28;20237;-70
2023/04/29 01:15:29;;;;;;;7.57;5.63;;;;;;;9.34;42.46;94942.84;5026175;28;20228;-71
2023/04/29 01:17:59;;;;;;;9.33;5.87;;;;;;;9.32;42.52;94935.09;4975802;28;20567;-70
2023/04/29 01:20:26;;;;;;;6.37;4.77;;;;;;;9.46;42.69;94936.41;4974011;28;20231;-70
2023/04/29 01:22:51;;;;;;;6.32;5.07;;;;;;;9.25;43.00;94934.88;4973757;28;20291;-71
2023/04/29 01:25:17;;;;;;;9.37;5.93;;;;;;;9.19;43.54;94930.19;4990758;28;20635;-70
2023/04/29 01:28:04;;;;;;;8.23;5.80;;;;;;;9.27;43.67;94932.94;4990108;28;20195;-70
2023/04/29 01:30:57;;;;;;;11.23;5.57;;;;;;;9.15;44.23;94931.47;4989452;28;20211;-70
2023/04/29 01:33:46;;;;;;;6.07;5.10;;;;;;;8.98;45.01;94938.31;4971230;28;20270;-70
2023/04/29 01:36:55;;;;;;;6.80;5.60;;;;;;;9.03;45.33;94940.47;4973040;28;20235;-70
2023/04/29 01:39:24;;;;;;;7.37;5.60;;;;;;;9.11;44.92;94932.72;4857251;29;20280;-70
2023/04/29 01:42:02;;;;;;;8.43;5.73;;;;;;;9.16;45.70;94938.34;4856737;29;21027;-70
2023/04/29 01:44:28;;;;;;;8.70;6.00;;;;;;;9.03;47.26;94935.22;4853589;29;20228;-70
2023/04/29 01:46:55;;;;;;;9.37;6.47;;;;;;;9.04;47.06;94922.00;4854064;29;20236;-69
2023/04/29 01:49:24;;;;;;;6.93;6.03;;;;;;;8.97;47.67;94931.41;4856591;29;20271;-70
2023/04/29 01:51:49;;;;;;;12.07;6.70;;;;;;;8.85;47.37;94935.19;4856771;29;20211;-70
2023/04/29 01:54:15;;;;;;;10.03;6.63;;;;;;;8.87;47.19;94937.66;4857245;29;20230;-68
2023/04/29 01:56:40;;;;;;;7.57;6.77;;;;;;;8.90;48.03;94926.88;4912423;29;20230;-69
2023/04/29 01:59:07;;;;;;;11.37;6.87;;;;;;;8.78;49.18;94929.66;4911611;29;20227;-68
2023/04/29 02:01:32;;;;;;;12.23;7.37;;;;;;;8.95;48.65;94932.50;4912046;29;20301;-67
2023/04/29 02:03:58;;;;;;;10.00;7.47;;;;;;;8.84;49.14;94929.09;4909696;29;20207;-67
2023/04/29 02:06:24;;;;;;;8.27;7.30;;;;;;;8.79;49.10;94928.72;4910977;29;20200;-68
2023/04/29 02:08:49;;;;;;;12.93;7.10;;;;;;;8.80;48.95;94932.97;4888406;29;20233;-67
2023/04/29 02:11:15;;;;;;;9.17;7.93;;;;;;;8.79;49.00;94931.34;4912876;29;20230;-68
2023/04/29 02:13:40;;;;;;;11.53;6.40;;;;;;;8.73;48.44;94936.31;4916139;29;20293;-67
2023/04/29 02:16:08;;;;;;;8.53;6.80;;;;;;;8.66;49.18;94938.69;4975325;28;20222;-67
2023/04/29 02:18:33;;;;;;;9.00;7.30;;;;;;;8.68;50.13;94935.91;5032962;28;20217;-67
2023/04/29 02:21:00;;;;;;;9.90;6.87;;;;;;;8.55;49.91;94938.81;5024283;28;20237;-67
2023/04/29 02:23:26;;;;;;;7.80;6.93;;;;;;;8.46;50.12;94944.94;5038738;28;20230;-67
2023/04/29 02:25:51;;;;;;;10.87;7.30;;;;;;;8.39;50.35;94942.03;5026590;28;20252;-68
2023/04/29 02:28:17;;;;;;;10.07;7.53;;;;;;;8.43;50.30;94932.94;5032301;28;20229;-68
2023/04/29 02:30:42;;;;;;;11.60;7.40;;;;;;;8.34;50.52;94939.81;5024123;28;20221;-68
2023/04/29 02:33:07;;;;;;;10.90;6.77;;;;;;;8.35;50.19;94933.59;5028863;28;20227;-68
2023/04/29 02:35:33;;;;;;;12.27;7.83;;;;;;;8.41;49.85;94934.03;5020135;28;20249;-68
2023/04/29 02:37:58;;;;;;;12.10;7.30;;;;;;;8.41;49.74;94941.91;5030164;28;20226;-68
2023/04/29 02:40:25;;;;;;;11.27;7.63;;;;;;;8.24;50.59;94933.75;5034868;28;20848;-68
2023/04/29 02:42:50;;;;;;;17.27;7.50;;;;;;;8.29;50.20;94942.03;5023525;28;20197;-68
2023/04/29 02:45:16;;;;;;;9.67;7.33;;;;;;;8.30;49.99;94935.00;5028888;28;20182;-69
2023/04/29 02:47:41;;;;;;;11.97;7.57;;;;;;;8.24;50.20;94941.63;5039444;28;20225;-67
2023/04/29 02:50:07;;;;;;;8.43;7.13;;;;;;;8.17;50.45;94943.13;5029242;28;20225;-68
2023/04/29 02:52:33;;;;;;;9.87;6.83;;;;;;;8.16;50.84;94936.25;5034787;28;20253;-69
2023/04/29 02:54:59;;;;;;;10.80;7.10;;;;;;;8.24;50.53;94938.19;5033727;28;20284;-69
2023/04/29 02:57:24;;;;;;;9.07;7.20;;;;;;;8.26;50.35;94947.56;5033845;28;20216;-70
2023/04/29 02:59:50;;;;;;;9.13;7.20;;;;;;;8.08;50.76;94947.41;5032086;28;20312;-70
2023/04/29 03:02:16;;;;;;;11.10;6.70;;;;;;;7.99;50.99;94963.94;5031340;28;20316;-69
2023/04/29 03:04:41;;;;;;;10.83;7.33;;;;;;;8.03;50.68;94972.34;5026343;28;20225;-70
2023/04/29 03:07:07;;;;;;;10.73;7.57;;;;;;;7.99;51.34;94966.56;5033904;28;20291;-69
2023/04/29 03:09:33;;;;;;;9.07;7.20;;;;;;;8.13;50.91;94967.97;5031793;28;20224;-69
2023/04/29 03:11:58;;;;;;;8.90;6.60;;;;;;;8.02;51.48;94965.44;5040768;28;20221;-68
2023/04/29 03:14:23;;;;;;;10.50;7.50;;;;;;;8.01;51.46;94959.38;5027053;28;20228;-68
2023/04/29 03:16:49;;;;;;;8.20;6.67;;;;;;;7.95;51.78;94958.16;5027728;28;20222;-69
2023/04/29 03:19:15;;;;;;;14.93;7.30;;;;;;;8.07;51.43;94965.88;5024269;28;20226;-69
2023/04/29 03:21:41;;;;;;;12.47;7.53;;;;;;;8.04;51.22;94958.28;5028886;28;20288;-69
2023/04/29 03:24:06;;;;;;;21.07;7.83;;;;;;;8.02;51.63;94960.22;5027651;28;20237;-68
2023/04/29 03:26:32;;;;;;;7.87;6.87;;;;;;;8.05;51.42;94970.44;5022516;28;20229;-69
2023/04/29 03:28:57;;;;;;;11.57;7.47;;;;;;;8.07;51.24;94971.97;5034966;28;20293;-69
2023/04/29 03:31:24;;;;;;;8.33;6.93;;;;;;;8.09;51.01;94977.84;5029704;28;20222;-69
2023/04/29 03:33:52;;;;;;;10.90;7.13;;;;;;;7.88;51.43;94979.78;5035214;28;20193;-70
2023/04/29 03:36:18;;;;;;;8.73;7.40;;;;;;;7.60;52.20;94984.00;5035492;28;20184;-68
2023/04/29 03:38:43;;;;;;;9.97;6.87;;;;;;;7.75;51.75;94987.88;5037456;28;20217;-68
2023/04/29 03:41:09;;;;;;;11.93;7.50;;;;;;;7.72;52.15;94989.00;5032275;28;20301;-68
2023/04/29 03:43:34;;;;;;;7.97;6.40;;;;;;;7.80;51.40;94998.78;5026355;28;20226;-68
2023/04/29 03:46:00;;;;;;;10.60;7.20;;;;;;;7.95;51.13;94999.22;5039131;28;20221;-68
2023/04/29 03:48:25;;;;;;;9.73;6.77;;;;;;;7.87;51.10;94991.22;5042299;28;20285;-68
2023/04/29 03:50:50;;;;;;;8.60;7.17;;;;;;;8.01;51.23;94992.59;5027080;28;20218;-68
2023/04/29 03:53:17;;;;;;;10.63;6.77;;;;;;;7.81;51.71;94984.75;5025918;28;20218;-68
2023/04/29 03:55:42;;;;;;;11.80;7.10;;;;;;;7.90;51.67;94986.53;5034348;28;20248;-68
2023/04/29 03:58:08;;;;;;;9.93;7.23;;;;;;;7.99;51.48;94982.25;5031733;28;20222;-68
2023/04/29 04:00:33;;;;;;;11.07;7.10;;;;;;;8.04;51.23;94974.81;5033872;28;20190;-68
2023/04/29 04:02:59;;;;;;;11.70;7.37;;;;;;;8.11;50.75;94981.19;5028398;28;20229;-70
2023/04/29 04:05:25;;;;;;;13.10;7.77;;;;;;;8.23;50.83;94986.28;5032376;28;20310;-69
2023/04/29 04:07:54;;;;;;;11.87;6.83;;;;;;;8.34;50.68;94983.50;5032557;28;20240;-69
2023/04/29 04:10:19;;;;;;;9.20;7.13;;;;;;;8.39;50.72;94982.19;5027676;28;20230;-70
2023/04/29 04:12:46;;;;;;;13.97;7.60;;;;;;;8.42;50.54;94980.22;5024387;28;20189;-67
2023/04/29 04:15:11;;;;;;;8.87;7.80;;;;;;;8.46;49.90;94994.72;5036866;28;20220;-68
2023/04/29 04:17:37;;;;;;;13.53;7.43;;;;;;;8.46;50.30;94994.72;5028906;28;20245;-67
2023/04/29 04:20:03;;;;;;;11.23;7.47;;;;;;;8.51;49.80;94992.50;5030069;28;20248;-68
2023/04/29 04:22:28;;;;;;;9.23;7.43;;;;;;;8.54;49.12;94986.97;5010145;28;20214;-68
2023/04/29 04:24:54;;;;;;;10.67;7.37;;;;;;;8.60;49.06;94991.66;5031680;28;20197;-68
2023/04/29 04:27:20;;;;;;;12.87;8.20;;;;;;;8.61;48.92;94980.22;5030805;28;20201;-68
2023/04/29 04:29:45;;;;;;;10.07;7.53;;;;;;;8.61;49.13;94981.03;5027895;28;20302;-67
2023/04/29 04:32:11;;;;;;;9.60;7.77;;;;;;;8.64;49.13;94977.31;5030618;28;20222;-68
2023/04/29 04:34:38;;;;;;;9.93;7.83;;;;;;;8.74;49.22;94982.53;5028596;28;20316;-68
2023/04/29 04:37:05;;;;;;;10.43;7.03;;;;;;;8.46;50.00;94985.06;5028337;28;20317;-68
2023/04/29 04:39:30;;;;;;;11.83;8.00;;;;;;;8.62;49.87;94979.25;5021824;28;20181;-70
2023/04/29 04:41:56;;;;;;;7.80;7.00;;;;;;;8.76;49.78;94988.47;5034028;28;20214;-70
2023/04/29 04:44:21;;;;;;;9.93;7.00;;;;;;;8.69;49.59;94990.81;5038128;28;20264;-70
2023/04/29 04:46:47;;;;;;;11.30;7.83;;;;;;;8.79;49.05;94982.94;5031422;28;20286;-70
2023/04/29 04:49:12;;;;;;;17.83;8.13;;;;;;;8.91;49.49;94987.03;5023601;28;20233;-71
2023/04/29 04:51:37;;;;;;;13.30;7.30;;;;;;;9.01;49.71;94989.66;5033608;28;20185;-72
2023/04/29 04:54:03;;;;;;;10.07;7.03;;;;;;;9.08;49.95;94989.91;5007883;28;20970;-72
2023/04/29 04:56:28;;;;;;;8.57;7.40;;;;;;;9.07;49.69;94983.00;5031254;28;20233;-70
2023/04/29 04:58:54;;;;;;;10.83;7.67;;;;;;;9.17;48.92;94995.13;5026015;28;20217;-71
2023/04/29 05:01:20;;;;;;;8.47;6.90;;;;;;;9.19;47.81;94990.53;5031263;28;20234;-71
2023/04/29 05:03:45;;;;;;;7.80;6.30;;;;;;;9.18;47.04;94986.25;5030486;28;20656;-71
2023/04/29 05:06:11;;;;;;;8.37;6.13;;;;;;;9.21;46.76;94972.84;5023615;28;20186;-71
2023/04/29 05:08:36;;;;;;;6.63;5.80;;;;;;;9.17;46.79;94963.63;5031304;28;20279;-71
2023/04/29 05:11:01;;;;;;;9.27;7.27;;;;;;;9.36;46.65;94973.22;5023692;28;20238;-71
2023/04/29 05:13:27;;;;;;;8.43;6.50;;;;;;;9.44;46.68;94972.50;5028011;28;20251;-71
2023/04/29 05:15:52;;;;;;;8.83;6.30;;;;;;;9.34;47.17;94967.28;5024951;28;20189;-72
2023/04/29 05:18:18;;;;;;;8.17;5.63;;;;;;;9.46;46.89;94966.13;5033461;28;20182;-68
2023/04/29 05:20:43;;;;;;;8.37;6.03;;;;;;;9.49;46.56;94954.50;5027048;28;20228;-72
2023/04/29 05:23:09;;;;;;;10.83;5.43;;;;;;;9.47;45.79;94943.34;5033089;28;20221;-72
2023/04/29 05:25:34;;;;;;;11.87;6.00;;;;;;;9.57;45.74;94944.09;5021606;28;20221;-71
2023/04/29 05:28:02;;;;;;;17.57;6.40;;;;;;;9.69;45.31;94953.41;5022981;28;20299;-71
2023/04/29 05:30:27;;;;;;;10.43;5.77;;;;;;;9.78;45.11;94945.63;5031151;28;20183;-68
2023/04/29 05:32:53;;;;;;;8.13;5.30;;;;;;;9.93;44.53;94946.75;5024515;28;20222;-68
2023/04/29 05:35:18;;;;;;;7.73;5.00;;;;;;;9.84;45.15;94950.28;5029654;28;20278;-71
2023/04/29 05:37:43;;;;;;;11.60;5.37;;;;;;;10.01;44.47;94946.00;5031489;28;20225;-70
2023/04/29 05:40:09;;;;;;;8.33;5.60;;;;;;;9.88;45.09;94952.44;5023058;28;20230;-71
2023/04/29 05:42:35;;;;;;;9.97;5.50;;;;;;;10.03;44.81;94944.88;5010118;28;20212;-72
2023/04/29 05:45:00;;;;;;;6.10;4.97;;;;;;;10.16;44.36;94941.91;5021744;28;20268;-68
2023/04/29 05:47:26;;;;;;;7.07;4.00;;;;;;;10.21;43.99;94936.16;5020517;28;20218;-70
2023/04/29 05:49:51;;;;;;;6.82;3.85;;;;;;;10.23;44.06;94931.59;5028776;28;20249;-70
2023/04/29 05:52:17;;;;;;;4.70;4.27;;;;;;;10.29;43.69;94936.25;5029906;28;20226;-68
2023/04/29 05:54:42;;;;;;;7.20;4.43;;;;;;;10.50;43.50;94946.44;5028155;28;20228;-67
2023/04/29 05:57:07;;;;;;;5.00;3.70;;;;;;;10.65;42.83;94952.81;5028585;28;20178;-70
2023/04/29 05:59:33;;;;;;;7.17;3.93;;;;;;;10.72;42.59;94953.00;5025600;28;20241;-70
2023/04/29 06:01:59;;;;;;;4.60;3.93;;;;;;;10.79;42.79;94952.25;5026308;28;20237;-68
2023/04/29 06:04:26;;;;;;;9.40;5.70;;;;;;;10.92;42.80;94946.56;5026109;28;20305;-68
2023/04/29 06:06:52;;;;;;;9.93;6.00;;;;;;;10.77;43.54;94950.75;5029758;28;20189;-69
2023/04/29 06:09:21;;;;;;;10.40;6.07;;;;;;;10.56;43.97;94944.06;5022036;28;20233;-71
2023/04/29 06:11:46;;;;;;;9.77;6.63;;;;;;;10.80;43.46;94955.72;5023400;28;20267;-69
2023/04/29 06:14:12;;;;;;;7.50;6.60;;;;;;;10.86;43.72;94941.94;5025174;28;20234;-69
2023/04/29 06:16:38;;;;;;;9.75;6.43;;;;;;;11.08;43.43;94929.22;5023601;28;21120;-71
2023/04/29 06:19:04;;;;;;;8.52;6.07;;;;;;;11.01;42.71;94935.13;5021571;28;20237;-70
2023/04/29 06:21:30;;;;;;;9.00;6.88;;;;;;;11.08;42.72;94940.56;5023792;28;20177;-69
2023/04/29 06:23:56;;;;;;;8.97;6.47;;;;;;;11.19;42.73;94937.66;5029214;28;20753;-68
2023/04/29 06:26:22;;;;;;;10.73;6.43;;;;;;;11.10;43.10;94932.53;5030403;28;20221;-68
2023/04/29 06:28:47;;;;;;;12.13;6.53;;;;;;;11.15;42.63;94936.34;5030887;28;20237;-69
2023/04/29 06:31:13;;;;;;;10.37;5.97;;;;;;;11.33;42.09;94949.41;5031469;28;20225;-69
2023/04/29 06:33:38;;;;;;;6.90;6.15;;;;;;;11.05;42.51;94943.53;5028575;28;20204;-69
2023/04/29 06:36:04;;;;;;;11.85;6.20;;;;;;;10.75;42.91;94929.88;5032355;28;20218;-69
2023/04/29 06:38:30;;;;;;;7.15;5.40;;;;;;;10.82;42.94;94933.53;5034116;28;20213;-68
2023/04/29 06:40:59;;;;;;;8.18;6.03;;;;;;;11.03;42.68;94942.84;5031235;28;20221;-68
2023/04/29 06:43:27;;;;;;;9.90;5.63;;;;;;;10.99;42.21;94946.78;5037107;28;20229;-69
2023/04/29 06:45:53;;;;;;;7.35;5.35;;;;;;;11.10;42.90;94937.81;5032154;28;20213;-69
2023/04/29 06:48:18;;;;;;;12.23;6.40;;;;;;;11.03;43.27;94940.22;5037835;28;20291;-70
2023/04/29 06:50:57;;;;;;;8.23;5.72;;;;;;;11.06;42.96;94937.28;5025922;28;20309;-69
2023/04/29 06:53:23;;;;;;;9.35;5.95;;;;;;;10.95;43.27;94938.38;5034562;28;20222;-70
2023/04/29 06:55:49;;;;;;;8.23;5.90;;;;;;;11.15;42.55;94940.78;5025595;28;20217;-72
2023/04/29 06:58:16;;;;;;;7.90;6.15;;;;;;;11.24;42.20;94942.47;5035625;28;20224;-71
2023/04/29 07:00:49;;;;;;;8.88;5.82;;;;;;;11.40;42.25;94944.34;5046780;28;20186;-65
2023/04/29 07:03:16;;;;;;;10.57;6.28;;;;;;;11.26;42.45;94940.50;5033584;28;20244;-64
2023/04/29 07:05:44;;;;;;;8.68;6.07;;;;;;;11.11;42.67;94932.38;5044713;28;20224;-65
2023/04/29 07:08:10;;;;;;;8.50;6.00;;;;;;;11.19;42.99;94932.41;5032658;28;20218;-65
2023/04/29 07:10:36;;;;;;;6.43;5.82;;;;;;;11.31;42.49;94934.78;5033984;28;20222;-66
2023/04/29 07:13:01;;;;;;;7.88;6.35;;;;;;;11.24;42.70;94931.94;5029148;28;20336;-66
2023/04/29 07:15:29;;;;;;;9.13;6.22;;;;;;;11.34;42.48;94930.00;5027499;28;20181;-66
2023/04/29 07:17:55;;;;;;;9.65;6.60;;;;;;;11.43;42.13;94925.59;5043524;28;20219;-64
2023/04/29 07:20:20;;;;;;;7.88;5.30;;;;;;;11.48;42.15;94926.75;5031511;28;20225;-65
2023/04/29 07:22:46;;;;;;;10.55;6.25;;;;;;;11.56;42.26;94928.59;5029259;28;20218;-69
2023/04/29 07:25:11;;;;;;;10.40;5.72;;;;;;;11.57;42.21;94930.25;5023684;28;20226;-71
2023/04/29 07:27:37;;;;;;;8.60;6.03;;;;;;;11.62;42.18;94929.78;5032863;28;20247;-70
2023/04/29 07:30:03;;;;;;;7.60;5.35;;;;;;;11.70;41.86;94935.88;5030753;28;20284;-70
2023/04/29 07:32:36;;;;;;;7.88;5.60;;;;;;;11.77;41.50;94930.81;5031716;28;20254;-63
2023/04/29 07:35:05;;;;;;;9.90;5.63;;;;;;;11.84;41.44;94920.44;5031811;28;20217;-65
2023/04/29 07:37:31;;;;;;;8.15;5.82;;;;;;;11.96;41.45;94935.00;5026767;28;20310;-67
2023/04/29 07:39:56;;;;;;;8.25;5.88;;;;;;;12.00;41.37;94931.06;5029877;28;20203;-67
2023/04/29 07:42:22;;;;;;;7.72;6.18;;;;;;;12.11;41.30;94927.28;5029927;28;20280;-67
2023/04/29 07:44:47;;;;;;;7.35;5.68;;;;;;;12.26;40.34;94927.44;5025260;28;20689;-67
2023/04/29 07:47:12;;;;;;;8.60;6.07;;;;;;;12.49;39.92;94925.81;5021808;28;20267;-67
2023/04/29 07:49:38;;;;;;;7.10;5.88;;;;;;;12.70;39.16;94927.94;5027815;28;20220;-67
2023/04/29 07:52:04;;;;;;;6.18;5.57;;;;;;;12.78;39.04;94921.81;5027699;28;20217;-67
2023/04/29 07:54:30;;;;;;;7.70;6.05;;;;;;;12.96;38.51;94917.16;5028361;28;20181;-68
2023/04/29 07:56:57;;;;;;;7.00;5.80;;;;;;;13.13;38.67;94911.84;5023172;28;20206;-68
2023/04/29 07:59:23;;;;;;;7.43;5.10;;;;;;;13.34;37.87;94909.50;5033778;28;20212;-69
2023/04/29 08:01:48;;;;;;;6.13;4.82;;;;;;;13.38;36.64;94902.03;5030252;28;20217;-68
2023/04/29 08:04:13;;;;;;;7.25;4.95;;;;;;;13.27;36.71;94907.69;5029882;28;20222;-69
2023/04/29 08:06:40;;;;;;;21.80;5.57;;;;;;;13.55;35.86;94906.25;5030643;28;20189;-70
2023/04/29 08:09:06;;;;;;;6.40;4.63;;;;;;;13.46;36.83;94909.91;5025588;28;20226;-69
2023/04/29 08:11:32;;;;;;;6.50;5.57;;;;;;;13.34;37.37;94911.28;5032052;28;20614;-70
2023/04/29 08:13:58;;;;;;;6.00;4.68;;;;;;;13.17;36.71;94902.56;5023952;28;20257;-69
2023/04/29 08:16:25;;;;;;;6.80;5.18;;;;;;;13.51;38.31;94904.13;5027694;28;20280;-69
2023/04/29 08:18:51;;;;;;;5.07;4.47;;;;;;;13.49;36.20;94896.38;5027210;28;20250;-69
2023/04/29 08:21:17;;;;;;;6.43;4.55;;;;;;;13.71;36.29;94893.94;5032635;28;20181;-68
2023/04/29 08:23:43;;;;;;;5.95;4.22;;;;;;;13.81;35.61;94890.06;5025938;28;20210;-69
2023/04/29 08:26:10;;;;;;;6.18;4.60;;;;;;;14.00;36.10;94888.78;5026758;28;20222;-68
2023/04/29 08:28:35;;;;;;;6.53;4.45;;;;;;;14.03;35.38;94884.97;5031075;28;20249;-69
2023/04/29 08:31:00;;;;;;;6.60;4.70;;;;;;;14.09;34.75;94884.28;5033668;28;20208;-68
2023/04/29 08:33:26;;;;;;;5.20;4.53;;;;;;;14.31;34.21;94886.09;5034558;28;20206;-69
2023/04/29 08:36:02;;;;;;;5.75;4.22;;;;;;;14.32;34.50;94886.91;5008359;28;20256;-69
2023/04/29 08:38:28;;;;;;;8.65;5.18;;;;;;;14.24;35.01;94879.03;5025370;28;20221;-68
2023/04/29 08:40:55;;;;;;;5.50;3.63;;;;;;;14.40;33.75;94891.31;5035205;28;20316;-69
2023/04/29 08:43:21;;;;;;;5.68;4.15;;;;;;;14.66;33.20;94888.31;5017397;28;21049;-68
2023/04/29 08:45:48;;;;;;;4.93;3.60;;;;;;;14.68;32.46;94881.03;5039481;28;20252;-69
2023/04/29 08:48:16;;;;;;;6.40;3.65;;;;;;;14.81;32.16;94875.94;5028941;28;20192;-69
2023/04/29 08:50:42;;;;;;;5.68;3.30;;;;;;;14.98;31.66;94881.88;5037411;28;20363;-75
2023/04/29 08:53:09;;;;;;;9.15;3.80;;;;;;;14.94;31.61;94876.13;5021111;28;20217;-73
2023/04/29 08:55:39;;;;;;;5.45;3.40;;;;;;;14.85;30.98;94871.91;5027901;28;20264;-74
2023/04/29 08:58:06;;;;;;;4.30;2.83;;;;;;;15.08;30.83;94873.66;5023520;28;20222;-68
2023/04/29 09:00:33;;;;;;;4.07;3.38;;;;;;;15.16;31.25;94865.63;5031955;28;20192;-68
2023/04/29 09:03:01;;;;;;;4.97;3.22;;;;;;;15.16;31.17;94863.78;5037152;28;20245;-69
2023/04/29 09:05:27;;;;;;;3.75;2.90;;;;;;;15.33;30.79;94861.75;5028319;28;20265;-69
2023/04/29 09:07:58;;;;;;;5.53;3.30;;;;;;;15.47;29.22;94853.97;5027730;28;20276;-68
2023/04/29 09:10:25;;;;;;;6.65;2.72;;;;;;;15.27;29.87;94859.84;5029868;28;20234;-70
2023/04/29 09:12:50;;;;;;;5.13;3.20;;;;;;;15.27;29.87;94846.59;5028814;28;20281;-75
2023/04/29 09:15:16;;;;;;;5.82;2.90;;;;;;;15.55;29.49;94854.66;5030500;28;20247;-74
2023/04/29 09:17:44;;;;;;;3.90;2.55;;;;;;;15.71;29.87;94866.91;5036188;28;20213;-72
2023/04/29 09:20:24;;;;;;;3.75;2.78;;;;;;;15.85;29.33;94844.00;5028871;28;20213;-73
2023/04/29 09:22:54;;;;;;;6.22;3.50;;;;;;;16.10;28.79;94857.75;5019074;28;20623;-73
2023/04/29 09:25:20;;;;;;;4.72;3.10;;;;;;;15.78;28.65;94849.25;5029959;28;20332;-74
2023/04/29 09:27:46;;;;;;;5.65;2.80;;;;;;;15.91;28.69;94840.63;5024654;28;20186;-73
2023/04/29 09:30:12;;;;;;;7.43;2.92;;;;;;;15.76;29.12;94838.00;5028377;28;20212;-74
2023/04/29 09:32:38;;;;;;;3.88;2.70;;;;;;;15.97;29.34;94837.22;5027929;28;20209;-74
2023/04/29 09:35:24;;;;;;;4.28;3.50;;;;;;;15.92;28.83;94844.91;5031033;28;20240;-75
2023/04/29 09:37:52;;;;;;;4.28;3.53;;;;;;;15.95;29.56;94835.75;5023352;28;20238;-74
2023/04/29 09:40:32;;;;;;;6.75;3.63;;;;;;;16.18;28.96;94828.44;5025289;28;20224;-74
2023/04/29 09:42:58;;;;;;;7.88;3.38;;;;;;;16.36;29.09;94825.31;5040377;28;20188;-74
2023/04/29 09:45:38;;;;;;;6.00;3.45;;;;;;;16.46;28.70;94817.81;5022545;28;20182;-74
2023/04/29 09:48:05;;;;;;;4.97;3.78;;;;;;;16.74;28.11;94817.81;5030501;28;20287;-74
2023/04/29 09:50:38;;;;;;;5.00;3.90;;;;;;;16.92;28.87;94812.06;5024476;28;20286;-75
2023/04/29 09:53:05;;;;;;;7.82;3.80;;;;;;;17.38;28.28;94814.09;5025527;28;20214;-74
2023/04/29 09:55:31;;;;;;;4.85;3.63;;;;;;;17.76;27.88;94810.94;5027253;28;20259;-76
2023/04/29 09:57:57;;;;;;;7.00;4.63;;;;;;;17.94;26.82;94804.28;5029449;28;20186;-76
2023/04/29 10:00:24;;;;;;;8.07;4.05;;;;;;;18.17;26.44;94798.53;5030820;28;20273;-75
2023/04/29 10:02:52;;;;;;;7.30;4.05;;;;;;;18.05;26.72;94795.69;5021805;28;20240;-76
2023/04/29 10:05:20;;;;;;;5.47;3.47;;;;;;;18.07;27.03;94797.13;5028901;28;20213;-75
2023/04/29 10:07:49;;;;;;;6.43;4.75;;;;;;;18.01;26.00;94789.13;5018987;28;20298;-75
2023/04/29 10:10:16;;;;;;;6.65;4.40;;;;;;;17.94;27.03;94790.97;5022379;28;20226;-75
2023/04/29 10:12:43;;;;;;;7.28;4.80;;;;;;;17.98;26.18;94785.03;5023565;28;20185;-76
2023/04/29 10:15:19;;;;;;;9.60;4.60;;;;;;;17.83;26.06;94787.88;5039581;28;20214;-75
2023/04/29 10:18:21;;;;;;;7.22;4.50;;;;;;;18.01;26.54;94787.28;5020355;28;20218;-75
2023/04/29 10:20:47;;;;;;;6.32;4.38;;;;;;;18.27;25.60;94775.00;5021187;28;20275;-75
2023/04/29 10:23:14;;;;;;;7.18;4.93;;;;;;;18.23;24.95;94771.09;5030868;28;20233;-75
2023/04/29 10:25:41;;;;;;;7.63;4.60;;;;;;;18.44;25.54;94773.59;5023002;28;20222;-75
2023/04/29 10:28:15;;;;;;;5.45;4.70;;;;;;;18.47;25.02;94765.19;5025949;28;20222;-74
2023/04/29 10:30:43;;;;;;;10.73;5.55;;;;;;;18.86;25.26;94766.16;5023704;28;20648;-73
2023/04/29 10:33:10;;;;;;;7.13;4.60;;;;;;;18.61;25.02;94770.50;5031655;28;20215;-74
2023/04/29 10:35:36;;;;;;;5.97;4.18;;;;;;;18.53;23.89;94776.84;5019182;28;20317;-73
2023/04/29 10:38:07;;;;;;;6.18;4.05;;;;;;;18.47;22.71;94767.00;5039097;28;20560;-73
2023/04/29 10:40:47;;;;;;;7.97;4.68;;;;;;;18.37;23.56;94771.94;5023498;28;20228;-72
2023/04/29 10:43:14;;;;;;;7.07;4.88;;;;;;;18.37;24.41;94767.44;5024189;28;20222;-73
2023/04/29 10:45:40;;;;;;;6.80;4.95;;;;;;;18.02;25.57;94770.31;5032338;28;20191;-74
2023/04/29 10:48:12;;;;;;;5.63;4.00;;;;;;;18.26;25.48;94762.75;5020895;28;20225;-73
2023/04/29 10:50:47;;;;;;;6.32;3.60;;;;;;;18.18;24.95;94768.28;5028913;28;20590;-73
2023/04/29 10:53:21;;;;;;;7.80;4.07;;;;;;;18.35;23.51;94772.13;5020209;28;20228;-74
2023/04/29 10:55:48;;;;;;;7.45;3.88;;;;;;;18.42;23.37;94762.31;5037887;28;20221;-73
2023/04/29 10:58:38;;;;;;;5.63;3.80;;;;;;;18.58;23.35;94765.53;5031281;28;20222;-73
2023/04/29 11:01:04;;;;;;;5.93;3.58;;;;;;;18.36;23.79;94765.78;5041301;28;20384;-72
2023/04/29 11:03:46;;;;;;;6.20;3.60;;;;;;;18.79;23.83;94762.69;5042643;28;20177;-73
2023/04/29 11:06:12;;;;;;;7.47;3.40;;;;;;;18.97;23.02;94753.22;5041706;28;20692;-73
2023/04/29 11:08:41;;;;;;;4.13;3.15;;;;;;;19.00;23.16;94761.59;5028515;28;20268;-73
2023/04/29 11:11:06;;;;;;;4.90;3.60;;;;;;;18.87;23.13;94762.47;5031504;28;20227;-72
2023/04/29 11:13:37;;;;;;;4.88;2.97;;;;;;;18.64;23.32;94762.88;5032835;28;20217;-73
2023/04/29 11:16:08;;;;;;;5.13;2.90;;;;;;;18.46;23.74;94747.56;5033505;28;20217;-72
2023/04/29 11:18:36;;;;;;;5.40;3.13;;;;;;;18.38;23.89;94753.09;5018765;28;20189;-72
2023/04/29 11:21:07;;;;;;;4.13;2.70;;;;;;;18.05;24.04;94745.13;5023034;28;20792;-72
2023/04/29 11:23:33;;;;;;;4.95;2.65;;;;;;;18.12;23.62;94753.09;5026087;28;20543;-72
2023/04/29 11:26:00;;;;;;;4.72;2.47;;;;;;;17.99;23.84;94749.44;5045598;28;20230;-73
2023/04/29 11:28:35;;;;;;;3.78;2.60;;;;;;;17.61;24.64;94751.78;5021893;28;20226;-69
2023/04/29 11:31:02;;;;;;;5.07;2.20;;;;;;;17.66;24.28;94756.50;5033286;28;20226;-71
2023/04/29 11:33:31;;;;;;;4.03;2.47;;;;;;;17.52;25.30;94748.50;5029865;28;20186;-69
2023/04/29 11:35:57;;;;;;;3.97;2.45;;;;;;;17.55;26.97;94745.44;5027312;28;20226;-69